createdAt,value
2018-07-25T10:04:53.063Z,9.37
2018-07-25T10:07:21.496Z,9.30
2018-07-25T10:09:49.835Z,8.90
2018-07-25T10:12:18.193Z,8.40
2018-07-25T10:14:46.587Z,8.77
2018-07-25T10:17:15.020Z,8.50
2018-07-25T10:19:43.485Z,8.80
2018-07-25T10:22:11.797Z,9.10
2018-07-25T10:24:40.216Z,9.07
2018-07-25T10:27:08.671Z,8.30
2018-07-25T10:29:37.035Z,8.67
2018-07-25T10:32:05.473Z,8.30
2018-07-25T10:34:33.824Z,7.30
2018-07-25T10:37:02.291Z,8.00
2018-07-25T10:39:30.667Z,7.80
2018-07-25T10:41:59.082Z,6.70
2018-07-25T10:44:27.422Z,6.80
2018-07-25T10:46:55.794Z,6.87
2018-07-25T10:49:24.204Z,7.43
2018-07-25T10:51:52.648Z,7.00
2018-07-25T10:54:21.006Z,7.97
2018-07-25T10:56:49.360Z,6.40
2018-07-25T10:59:17.764Z,6.67
2018-07-25T11:01:46.417Z,6.50
2018-07-25T11:04:19.003Z,6.10
2018-07-25T11:06:47.490Z,6.80
2018-07-25T11:09:15.869Z,6.97
2018-07-25T11:11:44.370Z,7.20
2018-07-25T11:14:12.773Z,6.67
2018-07-25T11:16:41.097Z,6.47
2018-07-25T11:19:09.484Z,6.70
2018-07-25T11:21:37.813Z,6.80
2018-07-25T11:24:06.822Z,6.23
2018-07-25T11:26:35.179Z,6.27
2018-07-25T11:29:03.670Z,7.10
2018-07-25T11:31:32.002Z,6.00
2018-07-25T11:34:00.499Z,6.10
2018-07-25T11:36:28.912Z,5.87
2018-07-25T11:38:57.265Z,6.77
2018-07-25T11:41:25.578Z,6.20
2018-07-25T11:43:54.004Z,5.63
2018-07-25T11:46:22.350Z,6.63
2018-07-25T11:48:50.698Z,6.27
2018-07-25T11:51:19.060Z,6.43
2018-07-25T11:53:47.410Z,5.90
2018-07-25T11:56:15.801Z,5.70
2018-07-25T11:58:44.179Z,5.60
2018-07-25T12:01:12.533Z,6.13
2018-07-25T12:03:40.935Z,5.90
2018-07-25T12:06:09.616Z,5.60
2018-07-25T12:08:37.931Z,5.40
2018-07-25T12:11:07.065Z,6.00
2018-07-25T12:13:35.429Z,5.60
2018-07-25T12:16:03.808Z,6.93
2018-07-25T12:18:32.158Z,5.90
2018-07-25T12:21:00.617Z,5.13
2018-07-25T12:23:29.011Z,5.50
2018-07-25T12:25:57.421Z,4.53
2018-07-25T12:28:25.753Z,5.23
2018-07-25T12:30:54.151Z,5.20
2018-07-25T12:33:22.594Z,5.53
2018-07-25T12:35:50.934Z,5.43
2018-07-25T12:38:19.335Z,5.80
2018-07-25T12:40:47.661Z,5.20
2018-07-25T12:43:16.029Z,4.77
2018-07-25T12:45:44.389Z,5.03
2018-07-25T12:48:12.770Z,5.33
2018-07-25T12:50:41.362Z,5.07
2018-07-25T12:53:09.769Z,5.27
2018-07-25T12:55:38.143Z,4.80
2018-07-25T12:58:06.554Z,4.80
2018-07-25T13:00:35.216Z,4.50
2018-07-25T13:03:03.827Z,4.73
2018-07-25T13:05:32.232Z,4.60
2018-07-25T13:08:00.647Z,4.53
2018-07-25T13:10:29.036Z,5.10
2018-07-25T13:12:57.413Z,5.37
2018-07-25T13:15:25.772Z,4.27
2018-07-25T13:17:54.197Z,4.47
2018-07-25T13:20:22.591Z,4.80
2018-07-25T13:22:51.039Z,4.67
2018-07-25T13:25:19.401Z,4.50
2018-07-25T13:27:47.706Z,4.30
2018-07-25T13:30:16.090Z,4.30
2018-07-25T13:32:44.413Z,4.60
2018-07-25T13:35:12.809Z,4.70
2018-07-25T13:37:41.135Z,4.70
2018-07-25T13:40:09.578Z,4.70
2018-07-25T13:42:37.937Z,4.60
2018-07-25T13:45:06.413Z,4.57
2018-07-25T13:47:34.871Z,5.03
2018-07-25T13:50:03.430Z,4.40
2018-07-25T13:52:31.892Z,4.90
2018-07-25T13:55:00.269Z,4.43
2018-07-25T13:57:28.629Z,4.90
2018-07-25T13:59:57.015Z,5.20
2018-07-25T14:02:25.378Z,4.60
2018-07-25T14:04:53.808Z,4.80
2018-07-25T14:07:22.224Z,5.17
2018-07-25T14:09:50.709Z,5.50
2018-07-25T14:12:19.080Z,5.60
2018-07-25T14:14:47.468Z,5.00
2018-07-25T14:17:15.946Z,5.33
2018-07-25T14:19:44.318Z,5.90
2018-07-25T14:22:12.689Z,5.10
2018-07-25T14:24:41.152Z,5.00
2018-07-25T14:27:09.588Z,5.40
2018-07-25T14:29:37.902Z,5.10
2018-07-25T14:32:06.751Z,5.20
2018-07-25T14:34:35.201Z,5.43
2018-07-25T14:37:03.643Z,5.00
2018-07-25T14:39:31.985Z,5.30
2018-07-25T14:42:00.322Z,5.23
2018-07-25T14:44:28.795Z,5.37
2018-07-25T14:46:57.139Z,4.67
2018-07-25T14:49:25.395Z,5.23
2018-07-25T14:51:53.775Z,4.60
2018-07-25T14:54:22.223Z,4.40
2018-07-25T14:56:50.542Z,4.47
2018-07-25T14:59:18.914Z,3.67
2018-07-25T15:01:47.301Z,4.40
2018-07-25T15:04:15.682Z,3.70
2018-07-25T15:06:44.367Z,3.97
2018-07-25T15:09:15.045Z,4.00
2018-07-25T15:11:45.192Z,3.70
2018-07-25T15:14:14.300Z,3.50
2018-07-25T15:16:43.055Z,4.20
2018-07-25T15:19:16.264Z,4.10
2018-07-25T15:21:45.100Z,4.13
2018-07-25T15:24:13.966Z,4.43
2018-07-25T15:26:42.564Z,4.53
2018-07-25T15:29:11.763Z,4.33
2018-07-25T15:31:42.296Z,5.13
2018-07-25T15:34:11.551Z,4.90
2018-07-25T15:36:46.573Z,3.70
2018-07-25T15:39:23.986Z,4.23
2018-07-25T15:41:54.284Z,3.80
2018-07-25T15:44:24.746Z,4.07
2018-07-25T15:46:54.138Z,3.67
2018-07-25T15:49:25.397Z,4.20
2018-07-25T15:51:54.634Z,4.23
2018-07-25T15:54:24.035Z,4.27
2018-07-25T15:56:52.642Z,4.70
2018-07-25T15:59:23.001Z,3.90
2018-07-25T16:01:56.558Z,4.13
2018-07-25T16:04:25.576Z,4.23
2018-07-25T16:06:54.746Z,4.57
2018-07-25T16:09:28.454Z,3.90
2018-07-25T16:11:58.058Z,5.70
2018-07-25T16:14:27.097Z,4.90
2018-07-25T16:16:57.211Z,4.23
2018-07-25T16:19:26.469Z,5.40
2018-07-25T16:21:55.289Z,4.60
2018-07-25T16:24:24.754Z,4.43
2018-07-25T16:26:54.694Z,4.60
2018-07-25T16:29:24.019Z,4.17
2018-07-25T16:31:53.146Z,4.40
2018-07-25T16:34:25.384Z,4.50
2018-07-25T16:37:00.357Z,4.77
2018-07-25T16:39:30.033Z,4.50
2018-07-25T16:41:58.908Z,4.03
2018-07-25T16:44:29.105Z,4.87
2018-07-25T16:46:58.330Z,4.53
2018-07-25T16:49:27.734Z,4.97
2018-07-25T16:51:56.832Z,4.93
2018-07-25T16:54:25.241Z,4.13
2018-07-25T16:56:54.592Z,5.13
2018-07-25T16:59:24.341Z,5.03
2018-07-25T17:01:53.058Z,4.80
2018-07-25T17:04:22.918Z,4.77
2018-07-25T17:06:52.046Z,4.90
2018-07-25T17:09:26.308Z,4.00
2018-07-25T17:11:56.921Z,4.90
2018-07-25T17:14:27.156Z,4.80
2018-07-25T17:16:55.927Z,5.40
2018-07-25T17:19:24.652Z,5.10
2018-07-25T17:21:54.041Z,4.70
2018-07-25T17:24:24.125Z,5.03
2018-07-25T17:26:53.798Z,5.30
2018-07-25T17:29:22.547Z,4.77
2018-07-25T17:31:51.559Z,5.47
2018-07-25T17:34:20.669Z,4.00
2018-07-25T17:36:50.628Z,4.67
2018-07-25T17:39:19.665Z,4.50
2018-07-25T17:41:49.650Z,4.47
2018-07-25T17:44:20.926Z,4.10
2018-07-25T17:46:49.731Z,4.70
2018-07-25T17:49:19.921Z,4.63
2018-07-25T17:51:49.293Z,4.60
2018-07-25T17:54:18.866Z,4.10
2018-07-25T17:56:49.052Z,5.17
2018-07-25T17:59:24.439Z,3.80
2018-07-25T18:01:53.786Z,3.83
2018-07-25T18:04:23.431Z,4.27
2018-07-25T18:06:57.555Z,4.03
2018-07-25T18:09:26.878Z,4.30
2018-07-25T18:11:56.494Z,4.20
2018-07-25T18:14:25.940Z,4.53
2018-07-25T18:16:55.020Z,4.10
2018-07-25T18:19:24.822Z,4.30
2018-07-25T18:21:53.476Z,4.33
2018-07-25T18:24:22.427Z,3.83
2018-07-25T18:26:52.412Z,4.10
2018-07-25T18:29:21.460Z,3.13
2018-07-25T18:31:50.728Z,3.60
2018-07-25T18:34:19.845Z,3.27
2018-07-25T18:36:49.372Z,3.40
2018-07-25T18:39:18.422Z,3.23
2018-07-25T18:41:47.203Z,3.40
2018-07-25T18:44:21.148Z,3.63
2018-07-25T18:46:51.158Z,3.80
2018-07-25T18:49:21.026Z,3.33
2018-07-25T18:51:50.448Z,3.77
2018-07-25T18:54:20.881Z,3.30
2018-07-25T18:56:50.256Z,2.70
2018-07-25T18:59:20.330Z,2.73
2018-07-25T19:01:50.116Z,3.20
2018-07-25T19:04:19.736Z,3.00
2018-07-25T19:06:49.465Z,3.00
2018-07-25T19:09:19.004Z,2.77
2018-07-25T19:11:47.624Z,3.30
2018-07-25T19:14:26.242Z,3.33
2018-07-25T19:16:55.844Z,2.77
2018-07-25T19:19:25.757Z,2.97
2018-07-25T19:21:56.013Z,3.40
2018-07-25T19:24:26.360Z,2.80
2018-07-25T19:26:56.217Z,3.83
2018-07-25T19:29:26.716Z,3.67
2018-07-25T19:31:56.253Z,3.57
2018-07-25T19:34:30.467Z,3.17
2018-07-25T19:37:01.862Z,2.87
2018-07-25T19:39:38.204Z,3.50
2018-07-25T19:42:09.239Z,3.43
2018-07-25T19:44:38.597Z,2.90
2018-07-25T19:47:08.369Z,2.87
2018-07-25T19:49:37.303Z,3.30
2018-07-25T19:52:06.499Z,4.13
2018-07-25T19:54:35.855Z,4.00
2018-07-25T19:57:04.844Z,3.50
2018-07-25T19:59:33.895Z,3.73
2018-07-25T20:02:03.138Z,3.00
2018-07-25T20:04:32.902Z,4.70
2018-07-25T20:07:02.585Z,6.57
2018-07-25T20:09:32.589Z,4.13
2018-07-25T20:12:01.824Z,5.10
2018-07-25T20:14:36.320Z,3.90
2018-07-25T20:17:05.658Z,3.47
2018-07-25T20:19:34.505Z,3.70
2018-07-25T20:22:07.355Z,3.53
2018-07-25T20:24:36.271Z,3.97
2018-07-25T20:27:06.820Z,2.97
2018-07-25T20:29:36.524Z,3.40
2018-07-25T20:32:07.013Z,4.07
2018-07-25T20:34:36.442Z,4.70
2018-07-25T20:37:05.419Z,4.93
2018-07-25T20:39:34.394Z,3.90
2018-07-25T20:42:03.651Z,3.93
2018-07-25T20:44:33.669Z,5.53
2018-07-25T20:47:03.921Z,3.60
2018-07-25T20:49:32.926Z,4.30
2018-07-25T20:52:03.249Z,3.40
2018-07-25T20:54:33.770Z,3.40
2018-07-25T20:57:03.465Z,3.63
2018-07-25T20:59:32.785Z,3.63
2018-07-25T21:02:03.038Z,4.30
2018-07-25T21:04:32.285Z,3.20
2018-07-25T21:07:01.546Z,3.70
2018-07-25T21:09:30.200Z,3.30
2018-07-25T21:11:59.860Z,3.43
2018-07-25T21:14:29.933Z,3.60
2018-07-25T21:16:59.556Z,4.20
2018-07-25T21:19:28.980Z,4.40
2018-07-25T21:21:57.422Z,3.30
2018-07-25T21:24:27.533Z,3.60
2018-07-25T21:26:57.011Z,3.80
2018-07-25T21:29:30.476Z,3.83
2018-07-25T21:32:00.530Z,3.77
2018-07-25T21:34:30.363Z,3.10
2018-07-25T21:36:59.481Z,3.23
2018-07-25T21:39:29.085Z,3.20
2018-07-25T21:41:58.661Z,3.37
2018-07-25T21:44:28.580Z,3.47
2018-07-25T21:46:59.819Z,3.17
2018-07-25T21:49:29.366Z,4.07
2018-07-25T21:51:58.141Z,3.90
2018-07-25T21:54:26.954Z,4.00
2018-07-25T21:56:56.647Z,3.50
2018-07-25T21:59:26.502Z,3.90
2018-07-25T22:01:55.300Z,3.97
2018-07-25T22:04:27.020Z,3.50
2018-07-25T22:06:56.191Z,3.33
2018-07-25T22:09:25.007Z,3.33
2018-07-25T22:11:58.214Z,3.63
2018-07-25T22:14:27.344Z,4.17
2018-07-25T22:16:57.271Z,3.30
2018-07-25T22:19:26.971Z,3.37
2018-07-25T22:22:00.725Z,3.63
2018-07-25T22:24:29.787Z,3.60
2018-07-25T22:26:58.628Z,3.53
2018-07-25T22:29:32.055Z,3.27
2018-07-25T22:32:07.101Z,3.43
2018-07-25T22:34:36.386Z,3.73
2018-07-25T22:37:07.004Z,4.00
2018-07-25T22:39:36.472Z,3.50
2018-07-25T22:42:06.779Z,3.30
2018-07-25T22:44:37.393Z,4.13
2018-07-25T22:47:07.362Z,3.90
2018-07-25T22:49:37.015Z,3.40
2018-07-25T22:52:05.942Z,3.00
2018-07-25T22:54:40.429Z,3.47
2018-07-25T22:57:10.880Z,3.27
2018-07-25T22:59:41.686Z,3.70
2018-07-25T23:02:10.763Z,4.00
2018-07-25T23:04:41.048Z,3.60
2018-07-25T23:07:10.097Z,3.33
2018-07-25T23:09:39.278Z,3.53
2018-07-25T23:12:08.753Z,4.00
2018-07-25T23:14:38.026Z,4.30
2018-07-25T23:17:08.969Z,3.63
2018-07-25T23:19:38.121Z,3.60
2018-07-25T23:22:08.164Z,3.57
2018-07-25T23:24:38.208Z,3.60
2018-07-25T23:27:08.972Z,3.30
2018-07-25T23:29:39.678Z,3.50
2018-07-25T23:32:09.261Z,3.47
2018-07-25T23:34:40.179Z,3.50
2018-07-25T23:37:10.601Z,3.70
2018-07-25T23:39:41.710Z,3.67
2018-07-25T23:42:14.324Z,3.80
2018-07-25T23:44:48.034Z,3.23
2018-07-25T23:47:16.493Z,3.70
2018-07-25T23:49:50.103Z,3.50
2018-07-25T23:52:19.420Z,3.90
2018-07-25T23:54:49.357Z,3.90
2018-07-25T23:57:19.437Z,3.57
2018-07-25T23:59:58.245Z,3.80
